sensor_id;sensor_type;location;lat;lon;timestamp;P1;durP1;ratioP1;P2;durP2;ratioP2
4074;SDS011;2052;53.522;9.806;2023-04-24T00:00:14;15.90;;;11.80;;
4074;SDS011;2052;53.522;9.806;2023-04-24T00:02:42;14.67;;;10.93;;
4074;SDS011;2052;53.522;9.806;2023-04-24T00:05:11;15.30;;;11.50;;
4074;SDS011;2052;53.522;9.806;2023-04-24T00:07:38;14.30;;;11.40;;
4074;SDS011;2052;53.522;9.806;2023-04-24T00:10:07;15.97;;;10.83;;
4074;SDS011;2052;53.522;9.806;2023-04-24T00:12:35;15.73;;;10.07;;
4074;SDS011;2052;53.522;9.806;2023-04-24T00:15:02;12.47;;;10.03;;
4074;SDS011;2052;53.522;9.806;2023-04-24T00:17:29;12.80;;;10.20;;
4074;SDS011;2052;53.522;9.806;2023-04-24T00:19:56;15.00;;;10.83;;
4074;SDS011;2052;53.522;9.806;2023-04-24T00:22:24;18.10;;;9.97;;
4074;SDS011;2052;53.522;9.806;2023-04-24T00:24:50;13.43;;;10.10;;
4074;SDS011;2052;53.522;9.806;2023-04-24T00:27:17;15.37;;;10.67;;
4074;SDS011;2052;53.522;9.806;2023-04-24T00:29:45;12.43;;;9.53;;
4074;SDS011;2052;53.522;9.806;2023-04-24T00:32:12;13.07;;;10.10;;
4074;SDS011;2052;53.522;9.806;2023-04-24T00:34:39;11.87;;;9.83;;
4074;SDS011;2052;53.522;9.806;2023-04-24T00:37:05;16.50;;;10.33;;
4074;SDS011;2052;53.522;9.806;2023-04-24T00:39:32;12.07;;;9.30;;
4074;SDS011;2052;53.522;9.806;2023-04-24T00:41:59;12.87;;;10.10;;
4074;SDS011;2052;53.522;9.806;2023-04-24T00:44:26;12.43;;;9.67;;
4074;SDS011;2052;53.522;9.806;2023-04-24T00:46:54;14.27;;;10.33;;
4074;SDS011;2052;53.522;9.806;2023-04-24T00:49:21;12.97;;;10.40;;
4074;SDS011;2052;53.522;9.806;2023-04-24T00:51:48;14.70;;;10.00;;
4074;SDS011;2052;53.522;9.806;2023-04-24T00:54:16;13.43;;;10.67;;
4074;SDS011;2052;53.522;9.806;2023-04-24T00:56:43;19.40;;;11.70;;
4074;SDS011;2052;53.522;9.806;2023-04-24T00:59:10;12.97;;;10.00;;
4074;SDS011;2052;53.522;9.806;2023-04-24T01:01:37;13.70;;;10.70;;
4074;SDS011;2052;53.522;9.806;2023-04-24T01:04:08;13.23;;;9.47;;
4074;SDS011;2052;53.522;9.806;2023-04-24T01:06:36;12.13;;;9.73;;
4074;SDS011;2052;53.522;9.806;2023-04-24T01:09:05;12.30;;;9.67;;
4074;SDS011;2052;53.522;9.806;2023-04-24T01:11:33;10.13;;;7.67;;
4074;SDS011;2052;53.522;9.806;2023-04-24T01:13:59;16.40;;;7.87;;
4074;SDS011;2052;53.522;9.806;2023-04-24T01:16:26;12.30;;;7.60;;
4074;SDS011;2052;53.522;9.806;2023-04-24T01:18:53;7.97;;;7.17;;
4074;SDS011;2052;53.522;9.806;2023-04-24T01:21:23;11.23;;;7.53;;
4074;SDS011;2052;53.522;9.806;2023-04-24T01:23:51;9.70;;;6.47;;
4074;SDS011;2052;53.522;9.806;2023-04-24T01:26:18;8.57;;;6.40;;
4074;SDS011;2052;53.522;9.806;2023-04-24T01:28:46;7.57;;;6.30;;
4074;SDS011;2052;53.522;9.806;2023-04-24T01:31:12;10.93;;;6.47;;
4074;SDS011;2052;53.522;9.806;2023-04-24T01:33:39;9.73;;;5.53;;
4074;SDS011;2052;53.522;9.806;2023-04-24T01:36:07;9.77;;;5.77;;
4074;SDS011;2052;53.522;9.806;2023-04-24T01:38:34;7.10;;;5.73;;
4074;SDS011;2052;53.522;9.806;2023-04-24T01:41:02;6.97;;;5.60;;
4074;SDS011;2052;53.522;9.806;2023-04-24T01:43:29;7.13;;;5.47;;
4074;SDS011;2052;53.522;9.806;2023-04-24T01:45:56;7.53;;;5.33;;
4074;SDS011;2052;53.522;9.806;2023-04-24T01:48:22;6.27;;;5.50;;
4074;SDS011;2052;53.522;9.806;2023-04-24T01:50:49;6.90;;;5.90;;
4074;SDS011;2052;53.522;9.806;2023-04-24T01:53:15;5.20;;;4.40;;
4074;SDS011;2052;53.522;9.806;2023-04-24T01:55:42;11.03;;;4.80;;
4074;SDS011;2052;53.522;9.806;2023-04-24T01:58:10;6.67;;;5.03;;
4074;SDS011;2052;53.522;9.806;2023-04-24T02:00:37;5.83;;;4.80;;
4074;SDS011;2052;53.522;9.806;2023-04-24T02:03:04;5.47;;;4.33;;
4074;SDS011;2052;53.522;9.806;2023-04-24T02:05:30;6.73;;;4.30;;
4074;SDS011;2052;53.522;9.806;2023-04-24T02:07:57;6.50;;;5.40;;
4074;SDS011;2052;53.522;9.806;2023-04-24T02:10:25;5.40;;;4.90;;
4074;SDS011;2052;53.522;9.806;2023-04-24T02:12:52;7.00;;;5.23;;
4074;SDS011;2052;53.522;9.806;2023-04-24T02:15:22;8.97;;;5.00;;
4074;SDS011;2052;53.522;9.806;2023-04-24T02:17:48;5.70;;;4.70;;
4074;SDS011;2052;53.522;9.806;2023-04-24T02:20:15;7.27;;;4.93;;
4074;SDS011;2052;53.522;9.806;2023-04-24T02:22:42;4.70;;;4.17;;
4074;SDS011;2052;53.522;9.806;2023-04-24T02:25:09;4.80;;;3.97;;
4074;SDS011;2052;53.522;9.806;2023-04-24T02:27:35;4.23;;;3.80;;
4074;SDS011;2052;53.522;9.806;2023-04-24T02:30:02;4.30;;;3.90;;
4074;SDS011;2052;53.522;9.806;2023-04-24T02:32:30;4.83;;;3.90;;
4074;SDS011;2052;53.522;9.806;2023-04-24T02:34:57;5.20;;;4.20;;
4074;SDS011;2052;53.522;9.806;2023-04-24T02:37:24;5.77;;;4.53;;
4074;SDS011;2052;53.522;9.806;2023-04-24T02:39:50;6.83;;;5.00;;
4074;SDS011;2052;53.522;9.806;2023-04-24T02:42:17;5.77;;;4.27;;
4074;SDS011;2052;53.522;9.806;2023-04-24T02:44:43;6.33;;;5.27;;
4074;SDS011;2052;53.522;9.806;2023-04-24T02:47:10;7.03;;;6.33;;
4074;SDS011;2052;53.522;9.806;2023-04-24T02:49:38;7.43;;;5.30;;
4074;SDS011;2052;53.522;9.806;2023-04-24T02:52:04;6.80;;;5.20;;
4074;SDS011;2052;53.522;9.806;2023-04-24T02:54:31;4.63;;;4.20;;
4074;SDS011;2052;53.522;9.806;2023-04-24T02:56:57;8.00;;;4.90;;
4074;SDS011;2052;53.522;9.806;2023-04-24T02:59:25;6.10;;;4.90;;
4074;SDS011;2052;53.522;9.806;2023-04-24T03:01:54;12.03;;;5.47;;
4074;SDS011;2052;53.522;9.806;2023-04-24T03:04:20;5.70;;;4.40;;
4074;SDS011;2052;53.522;9.806;2023-04-24T03:06:48;6.60;;;4.37;;
4074;SDS011;2052;53.522;9.806;2023-04-24T03:09:16;5.60;;;4.90;;
4074;SDS011;2052;53.522;9.806;2023-04-24T03:11:43;5.33;;;4.73;;
4074;SDS011;2052;53.522;9.806;2023-04-24T03:14:09;5.83;;;4.40;;
4074;SDS011;2052;53.522;9.806;2023-04-24T03:16:36;6.60;;;4.20;;
4074;SDS011;2052;53.522;9.806;2023-04-24T03:19:03;7.10;;;4.80;;
4074;SDS011;2052;53.522;9.806;2023-04-24T03:21:30;5.77;;;4.70;;
4074;SDS011;2052;53.522;9.806;2023-04-24T03:23:58;5.37;;;4.80;;
4074;SDS011;2052;53.522;9.806;2023-04-24T03:26:24;4.83;;;4.27;;
4074;SDS011;2052;53.522;9.806;2023-04-24T03:28:51;7.03;;;4.23;;
4074;SDS011;2052;53.522;9.806;2023-04-24T03:31:19;4.93;;;4.10;;
4074;SDS011;2052;53.522;9.806;2023-04-24T03:33:46;4.53;;;4.03;;
4074;SDS011;2052;53.522;9.806;2023-04-24T03:36:12;7.00;;;4.50;;
4074;SDS011;2052;53.522;9.806;2023-04-24T03:38:39;5.07;;;4.40;;
4074;SDS011;2052;53.522;9.806;2023-04-24T03:41:07;7.60;;;5.20;;
4074;SDS011;2052;53.522;9.806;2023-04-24T03:43:34;5.00;;;4.30;;
4074;SDS011;2052;53.522;9.806;2023-04-24T03:46:01;5.00;;;4.50;;
4074;SDS011;2052;53.522;9.806;2023-04-24T03:48:27;7.50;;;4.50;;
4074;SDS011;2052;53.522;9.806;2023-04-24T03:50:54;5.53;;;4.30;;
4074;SDS011;2052;53.522;9.806;2023-04-24T03:53:21;4.93;;;3.57;;
4074;SDS011;2052;53.522;9.806;2023-04-24T03:55:48;4.43;;;4.00;;
4074;SDS011;2052;53.522;9.806;2023-04-24T03:58:16;4.67;;;3.60;;
4074;SDS011;2052;53.522;9.806;2023-04-24T04:00:42;4.70;;;4.10;;
4074;SDS011;2052;53.522;9.806;2023-04-24T04:03:11;5.50;;;4.00;;
4074;SDS011;2052;53.522;9.806;2023-04-24T04:05:38;4.70;;;4.17;;
4074;SDS011;2052;53.522;9.806;2023-04-24T04:08:05;5.33;;;3.97;;
4074;SDS011;2052;53.522;9.806;2023-04-24T04:10:32;7.40;;;3.77;;
4074;SDS011;2052;53.522;9.806;2023-04-24T04:12:58;4.73;;;3.90;;
4074;SDS011;2052;53.522;9.806;2023-04-24T04:15:26;4.10;;;3.63;;
4074;SDS011;2052;53.522;9.806;2023-04-24T04:17:53;4.57;;;3.70;;
4074;SDS011;2052;53.522;9.806;2023-04-24T04:20:20;8.97;;;4.23;;
4074;SDS011;2052;53.522;9.806;2023-04-24T04:22:46;5.93;;;3.60;;
4074;SDS011;2052;53.522;9.806;2023-04-24T04:25:13;4.10;;;3.70;;
4074;SDS011;2052;53.522;9.806;2023-04-24T04:27:39;5.10;;;4.10;;
4074;SDS011;2052;53.522;9.806;2023-04-24T04:30:07;5.63;;;4.20;;
4074;SDS011;2052;53.522;9.806;2023-04-24T04:32:36;4.20;;;3.80;;
4074;SDS011;2052;53.522;9.806;2023-04-24T04:35:02;7.10;;;3.40;;
4074;SDS011;2052;53.522;9.806;2023-04-24T04:37:30;6.60;;;3.07;;
4074;SDS011;2052;53.522;9.806;2023-04-24T04:39:58;3.30;;;3.00;;
4074;SDS011;2052;53.522;9.806;2023-04-24T04:42:24;5.20;;;2.60;;
4074;SDS011;2052;53.522;9.806;2023-04-24T04:44:52;3.77;;;3.03;;
4074;SDS011;2052;53.522;9.806;2023-04-24T04:47:18;3.13;;;2.63;;
4074;SDS011;2052;53.522;9.806;2023-04-24T04:49:49;4.60;;;2.60;;
4074;SDS011;2052;53.522;9.806;2023-04-24T04:52:16;2.40;;;2.20;;
4074;SDS011;2052;53.522;9.806;2023-04-24T04:54:43;2.20;;;2.10;;
4074;SDS011;2052;53.522;9.806;2023-04-24T04:57:10;2.30;;;2.10;;
4074;SDS011;2052;53.522;9.806;2023-04-24T04:59:37;2.97;;;2.20;;
4074;SDS011;2052;53.522;9.806;2023-04-24T05:02:03;2.43;;;2.23;;
4074;SDS011;2052;53.522;9.806;2023-04-24T05:04:30;2.40;;;2.10;;
4074;SDS011;2052;53.522;9.806;2023-04-24T05:06:58;2.20;;;2.00;;
4074;SDS011;2052;53.522;9.806;2023-04-24T05:09:24;2.10;;;1.90;;
4074;SDS011;2052;53.522;9.806;2023-04-24T05:11:52;2.50;;;1.70;;
4074;SDS011;2052;53.522;9.806;2023-04-24T05:14:18;2.23;;;1.60;;
4074;SDS011;2052;53.522;9.806;2023-04-24T05:16:45;1.40;;;1.30;;
4074;SDS011;2052;53.522;9.806;2023-04-24T05:19:12;1.50;;;1.40;;
4074;SDS011;2052;53.522;9.806;2023-04-24T05:21:39;1.67;;;1.57;;
4074;SDS011;2052;53.522;9.806;2023-04-24T05:24:07;2.90;;;2.70;;
4074;SDS011;2052;53.522;9.806;2023-04-24T05:26:33;1.90;;;1.60;;
4074;SDS011;2052;53.522;9.806;2023-04-24T05:29:00;3.67;;;1.40;;
4074;SDS011;2052;53.522;9.806;2023-04-24T05:31:27;2.57;;;1.17;;
4074;SDS011;2052;53.522;9.806;2023-04-24T05:33:54;1.83;;;1.30;;
4074;SDS011;2052;53.522;9.806;2023-04-24T05:36:20;1.63;;;1.20;;
4074;SDS011;2052;53.522;9.806;2023-04-24T05:38:47;1.47;;;1.27;;
4074;SDS011;2052;53.522;9.806;2023-04-24T05:41:15;1.40;;;1.00;;
4074;SDS011;2052;53.522;9.806;2023-04-24T05:43:42;1.43;;;1.17;;
4074;SDS011;2052;53.522;9.806;2023-04-24T05:46:08;1.80;;;1.40;;
4074;SDS011;2052;53.522;9.806;2023-04-24T05:48:35;1.40;;;1.13;;
4074;SDS011;2052;53.522;9.806;2023-04-24T05:51:01;1.73;;;1.30;;
4074;SDS011;2052;53.522;9.806;2023-04-24T05:53:28;2.87;;;1.47;;
4074;SDS011;2052;53.522;9.806;2023-04-24T05:55:54;1.40;;;1.30;;
4074;SDS011;2052;53.522;9.806;2023-04-24T05:58:23;1.50;;;1.40;;
4074;SDS011;2052;53.522;9.806;2023-04-24T06:00:49;4.00;;;1.30;;
4074;SDS011;2052;53.522;9.806;2023-04-24T06:03:16;1.80;;;1.40;;
4074;SDS011;2052;53.522;9.806;2023-04-24T06:05:43;1.40;;;1.23;;
4074;SDS011;2052;53.522;9.806;2023-04-24T06:08:09;2.90;;;1.37;;
4074;SDS011;2052;53.522;9.806;2023-04-24T06:10:37;1.60;;;1.50;;
4074;SDS011;2052;53.522;9.806;2023-04-24T06:13:03;1.63;;;1.37;;
4074;SDS011;2052;53.522;9.806;2023-04-24T06:15:31;2.17;;;1.30;;
4074;SDS011;2052;53.522;9.806;2023-04-24T06:17:58;1.57;;;1.47;;
4074;SDS011;2052;53.522;9.806;2023-04-24T06:20:25;1.10;;;1.10;;
4074;SDS011;2052;53.522;9.806;2023-04-24T06:22:52;1.47;;;1.37;;
4074;SDS011;2052;53.522;9.806;2023-04-24T06:25:19;1.90;;;1.70;;
4074;SDS011;2052;53.522;9.806;2023-04-24T06:27:45;1.60;;;1.50;;
4074;SDS011;2052;53.522;9.806;2023-04-24T06:30:12;1.67;;;1.57;;
4074;SDS011;2052;53.522;9.806;2023-04-24T06:32:40;1.77;;;1.60;;
4074;SDS011;2052;53.522;9.806;2023-04-24T06:35:07;2.23;;;1.50;;
4074;SDS011;2052;53.522;9.806;2023-04-24T06:37:35;1.90;;;1.80;;
4074;SDS011;2052;53.522;9.806;2023-04-24T06:40:05;1.90;;;1.80;;
4074;SDS011;2052;53.522;9.806;2023-04-24T06:42:33;1.60;;;1.50;;
4074;SDS011;2052;53.522;9.806;2023-04-24T06:45:00;1.63;;;1.53;;
4074;SDS011;2052;53.522;9.806;2023-04-24T06:47:26;3.50;;;1.83;;
4074;SDS011;2052;53.522;9.806;2023-04-24T06:49:54;2.37;;;2.00;;
4074;SDS011;2052;53.522;9.806;2023-04-24T06:52:21;3.50;;;2.20;;
4074;SDS011;2052;53.522;9.806;2023-04-24T06:54:48;2.30;;;1.90;;
4074;SDS011;2052;53.522;9.806;2023-04-24T06:57:14;2.30;;;2.10;;
4074;SDS011;2052;53.522;9.806;2023-04-24T06:59:42;2.57;;;2.17;;
4074;SDS011;2052;53.522;9.806;2023-04-24T07:02:08;2.43;;;2.10;;
4074;SDS011;2052;53.522;9.806;2023-04-24T07:04:35;3.10;;;2.80;;
4074;SDS011;2052;53.522;9.806;2023-04-24T07:07:04;3.10;;;2.80;;
4074;SDS011;2052;53.522;9.806;2023-04-24T07:09:31;3.80;;;3.43;;
4074;SDS011;2052;53.522;9.806;2023-04-24T07:12:00;3.23;;;2.93;;
4074;SDS011;2052;53.522;9.806;2023-04-24T07:14:26;4.00;;;3.53;;
4074;SDS011;2052;53.522;9.806;2023-04-24T07:16:53;3.80;;;3.40;;
4074;SDS011;2052;53.522;9.806;2023-04-24T07:19:19;3.57;;;3.27;;
4074;SDS011;2052;53.522;9.806;2023-04-24T07:21:46;3.53;;;3.00;;
4074;SDS011;2052;53.522;9.806;2023-04-24T07:24:14;3.60;;;3.20;;
4074;SDS011;2052;53.522;9.806;2023-04-24T07:26:40;3.37;;;3.17;;
4074;SDS011;2052;53.522;9.806;2023-04-24T07:29:07;4.10;;;3.70;;
4074;SDS011;2052;53.522;9.806;2023-04-24T07:31:35;7.20;;;3.97;;
4074;SDS011;2052;53.522;9.806;2023-04-24T07:34:08;5.30;;;4.80;;
4074;SDS011;2052;53.522;9.806;2023-04-24T07:36:34;4.90;;;4.40;;
4074;SDS011;2052;53.522;9.806;2023-04-24T07:39:03;3.90;;;3.60;;
4074;SDS011;2052;53.522;9.806;2023-04-24T07:41:31;5.10;;;4.70;;
4074;SDS011;2052;53.522;9.806;2023-04-24T07:43:58;6.07;;;4.77;;
4074;SDS011;2052;53.522;9.806;2023-04-24T07:46:24;4.70;;;4.30;;
4074;SDS011;2052;53.522;9.806;2023-04-24T07:48:54;7.13;;;4.77;;
4074;SDS011;2052;53.522;9.806;2023-04-24T07:51:21;5.10;;;4.63;;
4074;SDS011;2052;53.522;9.806;2023-04-24T07:53:48;5.53;;;5.03;;
4074;SDS011;2052;53.522;9.806;2023-04-24T07:56:14;6.03;;;4.80;;
4074;SDS011;2052;53.522;9.806;2023-04-24T07:58:43;5.30;;;4.80;;
4074;SDS011;2052;53.522;9.806;2023-04-24T08:01:10;5.57;;;4.97;;
4074;SDS011;2052;53.522;9.806;2023-04-24T08:03:36;6.20;;;5.60;;
4074;SDS011;2052;53.522;9.806;2023-04-24T08:06:03;6.70;;;5.90;;
4074;SDS011;2052;53.522;9.806;2023-04-24T08:08:30;8.07;;;5.67;;
4074;SDS011;2052;53.522;9.806;2023-04-24T08:10:57;6.43;;;5.80;;
4074;SDS011;2052;53.522;9.806;2023-04-24T08:13:24;7.10;;;6.40;;
4074;SDS011;2052;53.522;9.806;2023-04-24T08:15:52;8.00;;;6.53;;
4074;SDS011;2052;53.522;9.806;2023-04-24T08:18:18;7.97;;;6.47;;
4074;SDS011;2052;53.522;9.806;2023-04-24T08:20:45;6.80;;;6.00;;
4074;SDS011;2052;53.522;9.806;2023-04-24T08:23:12;7.23;;;5.60;;
4074;SDS011;2052;53.522;9.806;2023-04-24T08:25:38;7.57;;;6.37;;
4074;SDS011;2052;53.522;9.806;2023-04-24T08:28:05;6.97;;;6.27;;
4074;SDS011;2052;53.522;9.806;2023-04-24T08:30:32;7.37;;;6.20;;
4074;SDS011;2052;53.522;9.806;2023-04-24T08:33:00;8.20;;;7.13;;
4074;SDS011;2052;53.522;9.806;2023-04-24T08:35:27;7.83;;;7.03;;
4074;SDS011;2052;53.522;9.806;2023-04-24T08:37:54;8.40;;;6.93;;
4074;SDS011;2052;53.522;9.806;2023-04-24T08:40:22;9.40;;;8.07;;
4074;SDS011;2052;53.522;9.806;2023-04-24T08:42:52;9.47;;;8.07;;
4074;SDS011;2052;53.522;9.806;2023-04-24T08:45:20;10.67;;;7.53;;
4074;SDS011;2052;53.522;9.806;2023-04-24T08:47:47;9.07;;;8.10;;
4074;SDS011;2052;53.522;9.806;2023-04-24T08:50:15;9.90;;;8.07;;
4074;SDS011;2052;53.522;9.806;2023-04-24T08:52:43;10.73;;;7.97;;
4074;SDS011;2052;53.522;9.806;2023-04-24T08:55:10;14.07;;;8.93;;
4074;SDS011;2052;53.522;9.806;2023-04-24T08:57:36;12.00;;;7.73;;
4074;SDS011;2052;53.522;9.806;2023-04-24T09:00:05;12.23;;;9.00;;
4074;SDS011;2052;53.522;9.806;2023-04-24T09:02:32;10.23;;;7.87;;
4074;SDS011;2052;53.522;9.806;2023-04-24T09:04:59;10.40;;;8.47;;
4074;SDS011;2052;53.522;9.806;2023-04-24T09:07:28;10.60;;;8.20;;
4074;SDS011;2052;53.522;9.806;2023-04-24T09:09:55;9.00;;;7.90;;
4074;SDS011;2052;53.522;9.806;2023-04-24T09:12:22;10.37;;;8.03;;
4074;SDS011;2052;53.522;9.806;2023-04-24T09:14:48;8.47;;;7.17;;
4074;SDS011;2052;53.522;9.806;2023-04-24T09:17:15;12.37;;;7.40;;
4074;SDS011;2052;53.522;9.806;2023-04-24T09:19:42;9.50;;;7.80;;
4074;SDS011;2052;53.522;9.806;2023-04-24T09:22:09;10.00;;;7.43;;
4074;SDS011;2052;53.522;9.806;2023-04-24T09:24:37;10.93;;;7.83;;
4074;SDS011;2052;53.522;9.806;2023-04-24T09:27:04;10.57;;;7.97;;
4074;SDS011;2052;53.522;9.806;2023-04-24T09:29:31;13.00;;;9.17;;
4074;SDS011;2052;53.522;9.806;2023-04-24T09:31:58;8.67;;;7.80;;
4074;SDS011;2052;53.522;9.806;2023-04-24T09:34:25;10.30;;;8.43;;
4074;SDS011;2052;53.522;9.806;2023-04-24T09:36:53;11.87;;;9.03;;
4074;SDS011;2052;53.522;9.806;2023-04-24T09:39:20;11.77;;;9.60;;
4074;SDS011;2052;53.522;9.806;2023-04-24T09:41:48;10.43;;;8.20;;
4074;SDS011;2052;53.522;9.806;2023-04-24T09:44:16;11.50;;;9.33;;
4074;SDS011;2052;53.522;9.806;2023-04-24T09:46:45;10.53;;;8.93;;
4074;SDS011;2052;53.522;9.806;2023-04-24T09:49:16;18.23;;;9.47;;
4074;SDS011;2052;53.522;9.806;2023-04-24T09:51:44;13.00;;;9.80;;
4074;SDS011;2052;53.522;9.806;2023-04-24T09:54:14;11.33;;;9.40;;
4074;SDS011;2052;53.522;9.806;2023-04-24T09:56:42;12.83;;;9.47;;
4074;SDS011;2052;53.522;9.806;2023-04-24T09:59:11;12.43;;;10.57;;
4074;SDS011;2052;53.522;9.806;2023-04-24T10:01:38;15.87;;;10.53;;
4074;SDS011;2052;53.522;9.806;2023-04-24T10:04:14;16.47;;;11.00;;
4074;SDS011;2052;53.522;9.806;2023-04-24T10:06:41;16.53;;;10.60;;
4074;SDS011;2052;53.522;9.806;2023-04-24T10:09:08;12.77;;;9.73;;
4074;SDS011;2052;53.522;9.806;2023-04-24T10:11:37;13.33;;;10.37;;
4074;SDS011;2052;53.522;9.806;2023-04-24T10:14:04;15.07;;;10.10;;
4074;SDS011;2052;53.522;9.806;2023-04-24T10:16:32;18.93;;;12.90;;
4074;SDS011;2052;53.522;9.806;2023-04-24T10:18:59;19.87;;;11.20;;
4074;SDS011;2052;53.522;9.806;2023-04-24T10:21:26;16.00;;;11.80;;
4074;SDS011;2052;53.522;9.806;2023-04-24T10:23:52;15.80;;;11.53;;
4074;SDS011;2052;53.522;9.806;2023-04-24T10:26:20;18.57;;;12.03;;
4074;SDS011;2052;53.522;9.806;2023-04-24T10:28:48;20.30;;;12.77;;
4074;SDS011;2052;53.522;9.806;2023-04-24T10:31:16;15.83;;;11.77;;
4074;SDS011;2052;53.522;9.806;2023-04-24T10:33:45;19.10;;;12.80;;
4074;SDS011;2052;53.522;9.806;2023-04-24T10:36:12;15.80;;;11.43;;
4074;SDS011;2052;53.522;9.806;2023-04-24T10:38:40;18.63;;;12.00;;
4074;SDS011;2052;53.522;9.806;2023-04-24T10:41:08;18.87;;;12.40;;
4074;SDS011;2052;53.522;9.806;2023-04-24T10:43:41;18.57;;;12.27;;
4074;SDS011;2052;53.522;9.806;2023-04-24T10:46:07;15.83;;;11.90;;
4074;SDS011;2052;53.522;9.806;2023-04-24T10:48:35;16.40;;;12.00;;
4074;SDS011;2052;53.522;9.806;2023-04-24T10:51:03;14.20;;;10.83;;
4074;SDS011;2052;53.522;9.806;2023-04-24T10:53:30;14.20;;;11.37;;
4074;SDS011;2052;53.522;9.806;2023-04-24T10:55:58;16.67;;;11.53;;
4074;SDS011;2052;53.522;9.806;2023-04-24T10:58:35;17.00;;;12.17;;
4074;SDS011;2052;53.522;9.806;2023-04-24T11:01:03;15.80;;;11.47;;
4074;SDS011;2052;53.522;9.806;2023-04-24T11:03:30;17.53;;;11.13;;
4074;SDS011;2052;53.522;9.806;2023-04-24T11:05:59;16.47;;;11.97;;
4074;SDS011;2052;53.522;9.806;2023-04-24T11:08:29;13.53;;;11.00;;
4074;SDS011;2052;53.522;9.806;2023-04-24T11:11:02;17.27;;;12.40;;
4074;SDS011;2052;53.522;9.806;2023-04-24T11:16:29;17.30;;;11.30;;
4074;SDS011;2052;53.522;9.806;2023-04-24T11:19:00;16.53;;;11.03;;
4074;SDS011;2052;53.522;9.806;2023-04-24T11:21:30;16.63;;;11.63;;
4074;SDS011;2052;53.522;9.806;2023-04-24T11:23:59;14.87;;;11.23;;
4074;SDS011;2052;53.522;9.806;2023-04-24T11:27:09;14.03;;;11.00;;
4074;SDS011;2052;53.522;9.806;2023-04-24T11:29:39;20.77;;;12.80;;
4074;SDS011;2052;53.522;9.806;2023-04-24T11:32:14;13.87;;;11.27;;
4074;SDS011;2052;53.522;9.806;2023-04-24T11:34:45;16.00;;;10.80;;
4074;SDS011;2052;53.522;9.806;2023-04-24T11:37:12;14.53;;;11.13;;
4074;SDS011;2052;53.522;9.806;2023-04-24T11:39:40;14.17;;;12.00;;
4074;SDS011;2052;53.522;9.806;2023-04-24T11:42:07;16.10;;;10.50;;
4074;SDS011;2052;53.522;9.806;2023-04-24T11:44:35;12.93;;;9.80;;
4074;SDS011;2052;53.522;9.806;2023-04-24T11:47:02;15.07;;;8.90;;
4074;SDS011;2052;53.522;9.806;2023-04-24T11:49:29;11.17;;;9.00;;
4074;SDS011;2052;53.522;9.806;2023-04-24T11:51:55;11.77;;;8.70;;
4074;SDS011;2052;53.522;9.806;2023-04-24T11:54:22;11.67;;;8.70;;
4074;SDS011;2052;53.522;9.806;2023-04-24T11:56:50;17.80;;;9.40;;
4074;SDS011;2052;53.522;9.806;2023-04-24T11:59:17;10.57;;;7.50;;
4074;SDS011;2052;53.522;9.806;2023-04-24T12:01:43;16.40;;;8.77;;
4074;SDS011;2052;53.522;9.806;2023-04-24T12:04:11;11.63;;;8.63;;
4074;SDS011;2052;53.522;9.806;2023-04-24T12:06:38;14.80;;;8.47;;
4074;SDS011;2052;53.522;9.806;2023-04-24T12:09:04;11.60;;;8.90;;
4074;SDS011;2052;53.522;9.806;2023-04-24T12:11:31;13.70;;;9.57;;
4074;SDS011;2052;53.522;9.806;2023-04-24T12:14:10;14.43;;;9.50;;
4074;SDS011;2052;53.522;9.806;2023-04-24T12:16:37;13.20;;;9.03;;
4074;SDS011;2052;53.522;9.806;2023-04-24T12:19:04;12.33;;;9.17;;
4074;SDS011;2052;53.522;9.806;2023-04-24T12:21:31;11.07;;;9.17;;
4074;SDS011;2052;53.522;9.806;2023-04-24T12:23:57;15.90;;;10.13;;
4074;SDS011;2052;53.522;9.806;2023-04-24T12:26:24;14.00;;;11.00;;
4074;SDS011;2052;53.522;9.806;2023-04-24T12:28:51;14.30;;;10.97;;
4074;SDS011;2052;53.522;9.806;2023-04-24T12:31:19;14.17;;;9.87;;
4074;SDS011;2052;53.522;9.806;2023-04-24T12:33:47;17.20;;;10.73;;
4074;SDS011;2052;53.522;9.806;2023-04-24T12:36:13;15.83;;;10.60;;
4074;SDS011;2052;53.522;9.806;2023-04-24T12:38:43;10.70;;;8.73;;
4074;SDS011;2052;53.522;9.806;2023-04-24T12:41:11;13.40;;;9.30;;
4074;SDS011;2052;53.522;9.806;2023-04-24T12:43:50;11.60;;;8.93;;
4074;SDS011;2052;53.522;9.806;2023-04-24T12:46:17;9.13;;;8.10;;
4074;SDS011;2052;53.522;9.806;2023-04-24T12:48:45;15.70;;;8.90;;
4074;SDS011;2052;53.522;9.806;2023-04-24T12:51:12;14.63;;;8.50;;
4074;SDS011;2052;53.522;9.806;2023-04-24T12:53:38;11.90;;;8.73;;
4074;SDS011;2052;53.522;9.806;2023-04-24T12:56:05;10.30;;;8.17;;
4074;SDS011;2052;53.522;9.806;2023-04-24T12:58:31;9.47;;;8.03;;
4074;SDS011;2052;53.522;9.806;2023-04-24T13:00:58;9.93;;;7.90;;
4074;SDS011;2052;53.522;9.806;2023-04-24T13:03:26;10.00;;;7.70;;
4074;SDS011;2052;53.522;9.806;2023-04-24T13:05:54;8.70;;;7.40;;
4074;SDS011;2052;53.522;9.806;2023-04-24T13:08:21;9.60;;;7.60;;
4074;SDS011;2052;53.522;9.806;2023-04-24T13:10:47;10.53;;;7.57;;
4074;SDS011;2052;53.522;9.806;2023-04-24T13:13:14;13.50;;;8.30;;
4074;SDS011;2052;53.522;9.806;2023-04-24T13:15:41;9.30;;;8.33;;
4074;SDS011;2052;53.522;9.806;2023-04-24T13:18:07;8.77;;;7.57;;
4074;SDS011;2052;53.522;9.806;2023-04-24T13:20:34;11.90;;;8.10;;
4074;SDS011;2052;53.522;9.806;2023-04-24T13:23:02;10.90;;;7.30;;
4074;SDS011;2052;53.522;9.806;2023-04-24T13:25:30;11.53;;;8.50;;
4074;SDS011;2052;53.522;9.806;2023-04-24T13:28:00;10.43;;;7.97;;
4074;SDS011;2052;53.522;9.806;2023-04-24T13:30:27;9.80;;;8.70;;
4074;SDS011;2052;53.522;9.806;2023-04-24T13:32:53;11.10;;;7.90;;
4074;SDS011;2052;53.522;9.806;2023-04-24T13:35:20;12.00;;;7.80;;
4074;SDS011;2052;53.522;9.806;2023-04-24T13:37:48;11.13;;;8.20;;
4074;SDS011;2052;53.522;9.806;2023-04-24T13:40:15;12.63;;;8.23;;
4074;SDS011;2052;53.522;9.806;2023-04-24T13:42:43;10.30;;;7.43;;
4074;SDS011;2052;53.522;9.806;2023-04-24T13:45:10;9.30;;;7.67;;
4074;SDS011;2052;53.522;9.806;2023-04-24T13:47:38;12.30;;;7.90;;
4074;SDS011;2052;53.522;9.806;2023-04-24T13:50:08;9.00;;;7.20;;
4074;SDS011;2052;53.522;9.806;2023-04-24T13:52:35;10.00;;;7.53;;
4074;SDS011;2052;53.522;9.806;2023-04-24T13:55:02;9.43;;;8.10;;
4074;SDS011;2052;53.522;9.806;2023-04-24T13:57:30;7.40;;;6.70;;
4074;SDS011;2052;53.522;9.806;2023-04-24T13:59:57;10.40;;;6.60;;
4074;SDS011;2052;53.522;9.806;2023-04-24T14:02:26;10.43;;;7.53;;
4074;SDS011;2052;53.522;9.806;2023-04-24T14:04:53;7.10;;;6.10;;
4074;SDS011;2052;53.522;9.806;2023-04-24T14:07:19;10.60;;;6.53;;
4074;SDS011;2052;53.522;9.806;2023-04-24T14:09:46;6.60;;;5.77;;
4074;SDS011;2052;53.522;9.806;2023-04-24T14:12:13;7.20;;;5.97;;
4074;SDS011;2052;53.522;9.806;2023-04-24T14:14:43;7.00;;;6.30;;
4074;SDS011;2052;53.522;9.806;2023-04-24T14:17:09;9.50;;;7.83;;
4074;SDS011;2052;53.522;9.806;2023-04-24T14:19:36;9.33;;;7.23;;
4074;SDS011;2052;53.522;9.806;2023-04-24T14:22:05;10.50;;;8.40;;
4074;SDS011;2052;53.522;9.806;2023-04-24T14:24:32;9.13;;;7.80;;
4074;SDS011;2052;53.522;9.806;2023-04-24T14:27:11;11.17;;;8.37;;
4074;SDS011;2052;53.522;9.806;2023-04-24T14:30:00;14.13;;;9.67;;
4074;SDS011;2052;53.522;9.806;2023-04-24T14:32:27;13.93;;;9.53;;
4074;SDS011;2052;53.522;9.806;2023-04-24T14:34:54;17.97;;;9.27;;
4074;SDS011;2052;53.522;9.806;2023-04-24T14:37:24;12.03;;;9.83;;
4074;SDS011;2052;53.522;9.806;2023-04-24T14:39:51;14.60;;;9.90;;
4074;SDS011;2052;53.522;9.806;2023-04-24T14:42:18;15.90;;;11.30;;
4074;SDS011;2052;53.522;9.806;2023-04-24T14:44:44;15.70;;;10.47;;
4074;SDS011;2052;53.522;9.806;2023-04-24T14:47:13;14.97;;;9.60;;
4074;SDS011;2052;53.522;9.806;2023-04-24T14:49:39;16.10;;;10.47;;
4074;SDS011;2052;53.522;9.806;2023-04-24T14:52:06;15.50;;;9.33;;
4074;SDS011;2052;53.522;9.806;2023-04-24T14:54:33;13.60;;;9.30;;
4074;SDS011;2052;53.522;9.806;2023-04-24T14:57:00;13.87;;;9.17;;
4074;SDS011;2052;53.522;9.806;2023-04-24T14:59:29;17.07;;;10.40;;
4074;SDS011;2052;53.522;9.806;2023-04-24T15:01:56;15.77;;;9.63;;
4074;SDS011;2052;53.522;9.806;2023-04-24T15:04:24;17.83;;;9.50;;
4074;SDS011;2052;53.522;9.806;2023-04-24T15:06:51;7.70;;;5.37;;
4074;SDS011;2052;53.522;9.806;2023-04-24T15:09:18;3.90;;;3.17;;
4074;SDS011;2052;53.522;9.806;2023-04-24T15:11:45;3.20;;;2.90;;